Time;durP1;ratioP1;P1;durP2;ratioP2;P2;SDS_P1;SDS_P2;PMS_P1;PMS_P2;Temp;Humidity;BMP_temperature;BMP_pressure;BME280_temperature;BME280_humidity;BME280_pressure;Samples;Min_cycle;Max_cycle;Signal;HPM_P1;HPM_P2
2021/11/04 00:00:26;;;;;;;19.32;13.20;;;;;;;4.71;77.41;100030.71;1736050;81;21559;-59
2021/11/04 00:02:55;;;;;;;17.82;14.35;;;;;;;4.82;77.00;100027.53;1739643;80;21430;-59
2021/11/04 00:05:23;;;;;;;18.87;14.45;;;;;;;4.80;76.84;100028.88;1741668;80;21826;-59
2021/11/04 00:07:52;;;;;;;18.17;14.98;;;;;;;4.76;77.02;100032.38;1726944;80;21617;-60
2021/11/04 00:10:20;;;;;;;19.42;14.10;;;;;;;4.72;76.92;100030.70;1734280;80;21484;-60
2021/11/04 00:12:47;;;;;;;;;;;;;;;4.67;76.99;100033.37;1743863;80;21582;-58
2021/11/04 00:15:14;;;;;;;16.45;13.35;;;;;;;4.61;77.31;100034.73;1736675;81;20442;-59
2021/11/04 00:17:41;;;;;;;;;;;;;;;4.54;77.39;100031.80;1746212;80;22127;-59
2021/11/04 00:20:10;;;;;;;17.60;13.60;;;;;;;4.62;77.39;100029.10;1744866;80;20140;-59
2021/11/04 00:22:37;;;;;;;17.35;13.90;;;;;;;4.70;77.25;100032.47;1735856;81;21574;-59
2021/11/04 00:25:04;;;;;;;17.15;13.45;;;;;;;4.69;77.52;100033.36;1718154;81;21468;-59
2021/11/04 00:27:32;;;;;;;20.97;14.78;;;;;;;4.67;77.62;100030.77;1729079;82;21480;-59
2021/11/04 00:29:59;;;;;;;18.67;14.18;;;;;;;4.65;77.75;100031.66;1723303;81;22069;-59
2021/11/04 00:32:26;;;;;;;15.68;12.95;;;;;;;4.63;77.78;100036.91;1727231;81;21577;-59
2021/11/04 00:34:53;;;;;;;19.82;14.03;;;;;;;4.66;77.76;100030.34;1728088;81;21546;-59
2021/11/04 00:37:19;;;;;;;20.80;13.83;;;;;;;4.75;77.67;100033.28;1725879;81;21465;-59
2021/11/04 00:39:46;;;;;;;18.32;14.35;;;;;;;4.75;77.60;100029.37;1726261;81;20935;-58
2021/11/04 00:42:13;;;;;;;19.50;14.60;;;;;;;4.72;77.46;100024.64;1729788;81;21836;-59
2021/11/04 00:44:39;;;;;;;20.40;15.08;;;;;;;4.69;77.46;100026.84;1711021;81;21565;-59
2021/11/04 00:47:06;;;;;;;18.85;15.58;;;;;;;4.66;77.42;100036.84;1726500;81;21483;-59
2021/11/04 00:49:33;;;;;;;24.87;15.25;;;;;;;4.65;77.44;100044.26;1732068;80;21011;-59
2021/11/04 00:52:00;;;;;;;22.15;15.03;;;;;;;4.68;77.54;100046.80;1715594;82;21621;-59
2021/11/04 00:54:26;;;;;;;19.62;15.48;;;;;;;4.80;77.48;100046.23;1726511;81;21816;-59
2021/11/04 00:56:53;;;;;;;20.00;15.00;;;;;;;4.80;77.55;100044.51;1718610;81;21534;-59
2021/11/04 00:59:19;;;;;;;19.12;15.35;;;;;;;4.79;77.47;100045.83;1726624;81;21441;-59
2021/11/04 01:01:46;;;;;;;20.95;15.23;;;;;;;4.78;77.37;100052.76;1730325;81;21491;-59
2021/11/04 01:04:14;;;;;;;20.43;15.30;;;;;;;4.76;77.25;100045.85;1728640;81;21574;-59
2021/11/04 01:06:41;;;;;;;18.95;14.53;;;;;;;4.73;77.15;100047.18;1731539;81;21857;-59
2021/11/04 01:09:08;;;;;;;17.05;13.32;;;;;;;4.78;77.19;100051.91;1721555;81;21390;-59
2021/11/04 01:11:35;;;;;;;17.25;14.38;;;;;;;4.87;77.21;100047.43;1723263;81;21511;-59
2021/11/04 01:14:02;;;;;;;19.60;14.50;;;;;;;4.90;77.28;100053.48;1722113;81;21014;-59
2021/11/04 01:16:29;;;;;;;20.40;14.78;;;;;;;4.88;77.51;100048.31;1723079;82;21585;-59
2021/11/04 01:18:56;;;;;;;20.68;15.23;;;;;;;4.86;77.50;100045.73;1686762;83;21871;-59
2021/11/04 01:21:22;;;;;;;17.45;15.13;;;;;;;4.84;77.68;100045.30;1736228;81;21786;-59
2021/11/04 01:23:49;;;;;;;17.77;13.93;;;;;;;4.79;77.99;100045.83;1729304;80;21550;-59
2021/11/04 01:26:16;;;;;;;21.68;15.08;;;;;;;4.85;78.16;100047.04;1731570;80;21574;-59
2021/11/04 01:28:44;;;;;;;18.25;14.58;;;;;;;4.97;78.12;100041.68;1739696;82;21003;-59
2021/11/04 01:31:11;;;;;;;19.20;15.32;;;;;;;4.99;77.91;100045.13;1726817;80;21829;-59
2021/11/04 01:33:38;;;;;;;21.20;15.78;;;;;;;4.97;77.88;100048.20;1731496;80;21160;-60
2021/11/04 01:36:05;;;;;;;24.43;16.32;;;;;;;4.96;77.80;100061.24;1742916;80;21429;-59
2021/11/04 01:38:32;;;;;;;21.02;16.00;;;;;;;4.94;77.69;100070.83;1737345;81;21532;-59
2021/11/04 01:40:58;;;;;;;24.55;16.93;;;;;;;4.93;77.83;100070.39;1737124;82;21649;-58
2021/11/04 01:43:25;;;;;;;22.40;15.80;;;;;;;4.98;77.99;100065.98;1734129;80;21792;-59
2021/11/04 01:45:52;;;;;;;19.50;15.80;;;;;;;5.11;77.86;100061.03;1737315;80;21574;-59
2021/11/04 01:48:19;;;;;;;23.15;17.27;;;;;;;5.12;77.72;100056.67;1731873;82;20951;-59
2021/11/04 01:50:46;;;;;;;23.80;17.23;;;;;;;5.08;77.87;100053.23;1714045;82;21543;-59
2021/11/04 01:53:13;;;;;;;24.40;17.85;;;;;;;5.05;77.89;100054.16;1733943;81;21665;-59
2021/11/04 01:55:40;;;;;;;21.42;17.27;;;;;;;5.05;77.94;100059.37;1734064;80;21444;-59
2021/11/04 01:58:07;;;;;;;22.85;17.30;;;;;;;5.06;77.88;100065.44;1729470;80;21533;-59
2021/11/04 02:00:34;;;;;;;22.48;17.17;;;;;;;5.16;77.97;100061.84;1735544;81;21521;-58
2021/11/04 02:03:22;;;;;;;21.70;18.23;;;;;;;5.17;77.71;100057.48;1737933;80;21649;-58
2021/11/04 02:06:09;;;;;;;;;;;;;;;5.13;77.83;100061.02;1735754;80;21547;-58
2021/11/04 02:09:05;;;;;;;22.25;18.15;;;;;;;5.08;77.94;100063.66;1718866;80;21892;-58
2021/11/04 02:11:43;;;;;;;23.65;18.10;;;;;;;5.03;78.18;100067.66;1731009;80;21636;-57
2021/11/04 02:14:20;;;;;;;22.82;17.67;;;;;;;4.97;78.25;100070.35;1724859;80;21515;-58
2021/11/04 02:16:48;;;;;;;24.05;17.65;;;;;;;5.06;78.26;100076.71;1735240;81;21087;-59
2021/11/04 02:19:47;;;;;;;22.37;17.50;;;;;;;5.14;78.39;100075.34;1737514;80;21408;-58
2021/11/04 02:22:36;;;;;;;20.23;17.52;;;;;;;5.11;78.15;100073.20;1733438;81;22113;-59
2021/11/04 02:25:25;;;;;;;21.57;17.70;;;;;;;5.05;78.26;100082.83;1726433;81;21480;-59
2021/11/04 02:27:55;;;;;;;21.05;16.60;;;;;;;4.99;78.28;100075.52;1723303;82;21527;-58
2021/11/04 02:30:23;;;;;;;21.73;17.23;;;;;;;5.01;78.34;100073.33;1712986;81;21515;-57
2021/11/04 02:32:51;;;;;;;22.70;17.75;;;;;;;5.12;78.24;100067.09;1732381;81;21499;-57
2021/11/04 02:35:17;;;;;;;21.68;18.12;;;;;;;5.13;78.20;100071.44;1723063;81;21798;-58
2021/11/04 02:37:44;;;;;;;25.32;19.07;;;;;;;5.09;78.23;100080.19;1725337;82;21552;-58
2021/11/04 02:40:12;;;;;;;22.22;18.57;;;;;;;5.06;78.28;100094.11;1711821;81;21831;-57
2021/11/04 02:42:39;;;;;;;23.02;18.42;;;;;;;5.03;78.49;100098.08;1722122;81;21595;-58
2021/11/04 02:45:07;;;;;;;22.33;18.80;;;;;;;5.08;78.56;100102.77;1714972;81;21074;-58
2021/11/04 02:47:38;;;;;;;22.10;17.82;;;;;;;5.20;78.35;100111.74;1728558;81;21855;-58
2021/11/04 02:50:06;;;;;;;22.30;18.20;;;;;;;5.21;78.47;100111.29;1716510;81;22445;-57
2021/11/04 02:52:32;;;;;;;21.60;18.32;;;;;;;5.20;78.53;100110.89;1727735;81;21584;-58
2021/11/04 02:54:59;;;;;;;23.80;19.05;;;;;;;5.18;78.54;100119.14;1720543;80;21512;-58
2021/11/04 02:57:26;;;;;;;22.00;17.63;;;;;;;5.14;78.57;100123.98;1714433;82;21496;-57
2021/11/04 02:59:53;;;;;;;24.77;18.40;;;;;;;5.15;78.57;100120.05;1728540;81;21813;-58
2021/11/04 03:02:19;;;;;;;20.48;17.02;;;;;;;5.25;78.56;100119.06;1728853;81;21543;-57
2021/11/04 03:04:46;;;;;;;24.10;19.05;;;;;;;5.26;78.37;100131.66;1714155;82;21436;-58
2021/11/04 03:07:13;;;;;;;25.52;19.75;;;;;;;5.21;78.72;100133.00;1722393;81;21456;-57
2021/11/04 03:09:40;;;;;;;24.43;18.75;;;;;;;5.16;78.74;100137.44;1722503;81;21585;-58
2021/11/04 03:12:08;;;;;;;23.80;18.37;;;;;;;5.13;78.77;100136.16;1729375;80;22075;-58
2021/11/04 03:14:35;;;;;;;24.87;18.75;;;;;;;5.15;78.80;100143.97;1713618;81;21531;-58
2021/11/04 03:17:03;;;;;;;22.58;18.00;;;;;;;5.25;78.75;100150.77;1725325;81;21610;-58
2021/11/04 03:19:30;;;;;;;23.55;18.23;;;;;;;5.27;78.81;100145.09;1720878;82;21444;-58
2021/11/04 03:21:57;;;;;;;23.38;19.37;;;;;;;5.23;78.73;100150.79;1733048;81;21697;-58
2021/11/04 03:24:26;;;;;;;27.15;21.12;;;;;;;5.20;78.90;100157.81;1735039;80;22029;-58
2021/11/04 03:27:03;;;;;;;26.42;18.85;;;;;;;5.10;79.30;100156.19;1737486;81;21505;-58
2021/11/04 03:29:33;;;;;;;23.40;18.37;;;;;;;5.12;79.51;100168.30;1733102;80;21440;-58
2021/11/04 03:32:06;;;;;;;27.60;18.77;;;;;;;5.21;79.14;100170.80;1740335;80;20975;-58
2021/11/04 03:34:34;;;;;;;24.20;18.98;;;;;;;5.19;79.12;100173.88;1736215;82;21563;-58
2021/11/04 03:37:01;;;;;;;26.17;19.32;;;;;;;5.16;79.17;100176.53;1727067;80;22126;-58
2021/11/04 03:39:28;;;;;;;24.98;19.40;;;;;;;5.14;79.24;100170.91;1735222;80;21527;-58
2021/11/04 03:41:56;;;;;;;23.52;17.55;;;;;;;5.12;79.47;100167.45;1705244;81;21525;-59
2021/11/04 03:44:23;;;;;;;;;;;;;;;5.14;79.46;100165.27;1723819;80;21507;-58
2021/11/04 03:46:51;;;;;;;22.30;18.00;;;;;;;5.25;79.31;100155.98;1737638;82;25434;-58
2021/11/04 03:49:18;;;;;;;;;;;;;;;5.23;79.17;100147.33;1734722;80;21809;-59
2021/11/04 03:51:47;;;;;;;24.82;19.23;;;;;;;5.19;79.37;100138.67;1737807;80;20481;-59
2021/11/04 03:54:14;;;;;;;27.45;20.72;;;;;;;5.14;79.58;100133.98;1712916;81;21531;-59
2021/11/04 03:56:40;;;;;;;24.57;18.67;;;;;;;5.11;79.54;100138.38;1726686;82;21624;-60
2021/11/04 03:59:07;;;;;;;24.92;19.60;;;;;;;5.14;79.62;100137.90;1736614;80;21433;-59
2021/11/04 04:01:34;;;;;;;24.70;19.48;;;;;;;5.22;79.33;100129.98;1734505;80;21503;-59
2021/11/04 04:04:04;;;;;;;27.60;20.13;;;;;;;5.23;79.38;100139.50;1739158;79;21554;-58
2021/11/04 04:06:32;;;;;;;24.85;19.75;;;;;;;5.23;79.38;100139.50;1730680;80;22065;-59
2021/11/04 04:08:59;;;;;;;29.75;20.35;;;;;;;5.18;79.61;100136.09;1728912;80;21500;-59
2021/11/04 04:11:25;;;;;;;25.60;18.57;;;;;;;5.15;79.64;100134.39;1726588;80;21553;-59
2021/11/04 04:13:55;;;;;;;24.87;19.30;;;;;;;5.17;79.46;100131.77;1729068;80;21690;-59
2021/11/04 04:16:23;;;;;;;25.23;19.75;;;;;;;5.23;79.13;100116.04;1737577;80;21515;-59
2021/11/04 04:18:50;;;;;;;26.00;18.48;;;;;;;5.20;79.14;100109.59;1734632;80;21606;-58
2021/11/04 04:21:16;;;;;;;27.85;21.68;;;;;;;5.15;79.22;100104.86;1741082;82;21578;-58
2021/11/04 04:23:44;;;;;;;31.42;22.82;;;;;;;5.07;79.15;100114.94;1731228;80;21539;-58
2021/11/04 04:26:10;;;;;;;33.13;20.82;;;;;;;4.95;79.04;100113.78;1739533;80;21524;-58
2021/11/04 04:28:37;;;;;;;40.28;21.68;;;;;;;4.90;79.06;100109.09;1732948;82;21590;-58
2021/11/04 04:31:04;;;;;;;38.33;18.80;;;;;;;4.91;78.99;100102.98;1727309;80;21567;-58
2021/11/04 04:33:31;;;;;;;34.05;17.25;;;;;;;4.83;79.50;100114.80;1729456;80;21846;-58
2021/11/04 04:35:59;;;;;;;29.32;14.87;;;;;;;4.74;79.85;100120.56;1740627;80;21602;-58
2021/11/04 04:38:26;;;;;;;22.42;14.85;;;;;;;4.67;80.28;100122.36;1732631;80;21838;-59
2021/11/04 04:40:52;;;;;;;17.32;12.78;;;;;;;4.63;80.21;100125.46;1738697;80;21496;-58
2021/11/04 04:43:19;;;;;;;32.35;14.70;;;;;;;4.66;80.27;100122.80;1735590;80;21554;-58
2021/11/04 04:45:46;;;;;;;25.82;15.58;;;;;;;4.75;80.81;100134.88;1735934;80;21225;-58
2021/11/04 04:48:13;;;;;;;17.65;14.43;;;;;;;4.62;80.68;100131.53;1737350;80;21566;-58
2021/11/04 04:50:40;;;;;;;21.25;14.78;;;;;;;4.49;80.85;100132.09;1737187;82;21476;-58
2021/11/04 04:53:08;;;;;;;18.92;14.43;;;;;;;4.39;80.76;100134.38;1727309;80;21396;-58
2021/11/04 04:55:35;;;;;;;13.72;12.10;;;;;;;4.33;80.94;100121.41;1736675;80;21522;-58
2021/11/04 04:58:02;;;;;;;14.43;10.82;;;;;;;4.37;80.99;100120.94;1736176;80;21530;-59
2021/11/04 05:00:29;;;;;;;12.25;10.98;;;;;;;4.46;81.27;100113.92;1737109;82;21491;-58
2021/11/04 05:02:55;;;;;;;15.58;11.80;;;;;;;4.46;80.91;100099.59;1733749;80;22033;-59
2021/11/04 05:05:22;;;;;;;29.27;11.65;;;;;;;4.44;80.75;100098.72;1740090;80;21539;-59
2021/11/04 05:07:48;;;;;;;16.35;11.63;;;;;;;4.40;81.21;100102.69;1728575;80;21107;-58
2021/11/04 05:10:17;;;;;;;12.58;10.55;;;;;;;4.38;81.40;100110.52;1731833;80;21641;-59
2021/11/04 05:12:44;;;;;;;12.65;10.98;;;;;;;4.43;81.53;100113.09;1734595;82;21578;-58
2021/11/04 05:15:12;;;;;;;21.52;11.70;;;;;;;4.53;81.53;100109.49;1739737;80;21842;-59
2021/11/04 05:17:39;;;;;;;29.55;12.50;;;;;;;4.51;81.65;100106.50;1737831;80;21567;-59
2021/11/04 05:20:07;;;;;;;38.13;12.23;;;;;;;4.47;82.38;100114.33;1729587;80;21492;-58
2021/11/04 05:22:34;;;;;;;18.20;11.90;;;;;;;4.40;82.64;100115.27;1737868;80;20990;-59
2021/11/04 05:25:01;;;;;;;19.12;11.70;;;;;;;4.34;82.07;100111.87;1728357;82;21649;-58
2021/11/04 05:27:29;;;;;;;15.08;12.70;;;;;;;4.40;82.42;100127.42;1727452;81;21425;-58
2021/11/04 05:29:56;;;;;;;20.55;13.05;;;;;;;4.47;82.57;100130.40;1725493;81;21539;-59
2021/11/04 05:32:24;;;;;;;19.27;12.23;;;;;;;4.47;82.85;100134.30;1732492;81;21547;-58
2021/11/04 05:34:52;;;;;;;24.92;13.48;;;;;;;4.47;83.18;100134.30;1731092;81;21509;-58
2021/11/04 05:37:18;;;;;;;28.75;13.30;;;;;;;4.48;83.06;100128.20;1728972;81;21405;-59
2021/11/04 05:39:45;;;;;;;22.52;13.53;;;;;;;4.48;83.13;100128.20;1732937;81;22033;-59
2021/11/04 05:42:12;;;;;;;18.30;13.00;;;;;;;4.52;82.90;100129.03;1729828;81;21016;-58
2021/11/04 05:44:39;;;;;;;20.80;13.87;;;;;;;4.58;82.39;100122.48;1741620;80;21461;-59
2021/11/04 05:47:05;;;;;;;16.40;12.53;;;;;;;4.55;82.40;100118.59;1738314;81;21625;-59
2021/11/04 05:49:32;;;;;;;24.95;13.48;;;;;;;4.52;82.64;100123.41;1735524;81;21496;-58
2021/11/04 05:51:59;;;;;;;26.70;12.65;;;;;;;4.45;83.42;100141.27;1739774;80;21840;-58
2021/11/04 05:54:26;;;;;;;24.43;13.48;;;;;;;4.45;84.09;100144.73;1733548;80;20935;-58
2021/11/04 05:56:53;;;;;;;25.03;12.47;;;;;;;4.52;84.44;100144.66;1739032;80;21529;-58
2021/11/04 05:59:20;;;;;;;22.17;13.48;;;;;;;4.51;85.22;100146.86;1731115;80;21545;-58
2021/11/04 06:01:47;;;;;;;24.50;12.58;;;;;;;4.49;86.28;100149.47;1738099;80;21499;-58
2021/11/04 06:04:14;;;;;;;13.78;11.28;;;;;;;4.47;85.92;100144.27;1734631;81;21686;-58
2021/11/04 06:06:41;;;;;;;20.10;11.50;;;;;;;4.49;85.75;100145.56;1733345;80;21543;-58
2021/11/04 06:09:08;;;;;;;34.35;11.95;;;;;;;4.62;85.76;100148.47;1728763;81;20993;-58
2021/11/04 06:11:35;;;;;;;23.33;12.30;;;;;;;4.73;86.54;100153.98;1734865;81;21563;-58
2021/11/04 06:14:02;;;;;;;17.73;12.80;;;;;;;4.75;86.17;100156.16;1733673;80;21506;-56
2021/11/04 06:16:30;;;;;;;19.10;13.13;;;;;;;4.81;86.39;100158.70;1725252;82;21769;-55
2021/11/04 06:18:57;;;;;;;29.12;14.13;;;;;;;4.82;86.69;100161.70;1728999;80;21512;-55
2021/11/04 06:21:24;;;;;;;43.60;14.83;;;;;;;4.86;87.34;100167.33;1735555;80;21186;-55
2021/11/04 06:23:51;;;;;;;23.22;14.60;;;;;;;4.97;87.07;100169.80;1726138;80;21051;-55
2021/11/04 06:26:18;;;;;;;27.75;14.07;;;;;;;4.99;85.83;100172.83;1721103;82;21566;-55
2021/11/04 06:28:45;;;;;;;22.77;14.85;;;;;;;5.00;85.88;100177.59;1726944;81;21802;-55
2021/11/04 06:31:12;;;;;;;30.47;14.03;;;;;;;5.01;85.18;100177.58;1717367;80;21569;-55
2021/11/04 06:33:39;;;;;;;22.10;14.35;;;;;;;5.06;85.34;100177.52;1731242;81;22230;-55
2021/11/04 06:36:05;;;;;;;24.98;14.05;;;;;;;5.16;85.60;100176.53;1722061;81;21566;-56
2021/11/04 06:38:34;;;;;;;21.80;14.55;;;;;;;5.28;85.25;100189.00;1728818;82;21459;-56
2021/11/04 06:41:01;;;;;;;19.62;15.13;;;;;;;5.29;85.05;100183.74;1718400;80;21821;-56
2021/11/04 06:43:29;;;;;;;22.65;15.40;;;;;;;5.26;84.98;100185.11;1722284;81;21611;-56
2021/11/04 06:45:57;;;;;;;21.23;16.80;;;;;;;5.26;84.46;100178.59;1730853;81;21741;-56
2021/11/04 06:48:42;;;;;;;19.73;15.28;;;;;;;5.32;84.26;100182.86;1723593;82;21510;-55
2021/11/04 06:51:10;;;;;;;20.90;15.95;;;;;;;5.50;83.98;100185.66;1718866;81;21468;-56
2021/11/04 06:53:47;;;;;;;20.12;15.58;;;;;;;5.62;83.97;100174.61;1726272;81;21806;-56
2021/11/04 06:56:14;;;;;;;21.57;16.52;;;;;;;5.68;84.06;100164.53;1716991;80;21554;-59
2021/11/04 06:58:43;;;;;;;21.70;15.65;;;;;;;5.76;84.10;100160.51;1718308;82;21580;-56
2021/11/04 07:01:13;;;;;;;19.25;14.98;;;;;;;5.88;84.05;100160.34;1718507;80;21566;-58
2021/11/04 07:03:58;;;;;;;21.40;13.98;;;;;;;6.07;83.95;100157.02;1715453;82;20950;-57
2021/11/04 07:06:26;;;;;;;16.12;14.35;;;;;;;6.16;83.55;100153.38;1721608;81;22105;-57
2021/11/04 07:08:58;;;;;;;22.07;14.78;;;;;;;6.17;83.55;100149.45;1719106;80;21554;-57
2021/11/04 07:11:26;;;;;;;25.85;13.88;;;;;;;6.18;83.63;100137.27;1721823;81;21554;-56
2021/11/04 07:13:54;;;;;;;22.13;14.75;;;;;;;6.24;83.83;100131.48;1722845;81;21561;-58
2021/11/04 07:16:22;;;;;;;21.35;14.43;;;;;;;6.38;83.67;100133.84;1722275;81;20952;-56
2021/11/04 07:18:54;;;;;;;23.18;14.38;;;;;;;6.47;83.60;100126.30;1724407;80;21810;-56
2021/11/04 07:21:43;;;;;;;19.98;15.88;;;;;;;6.48;83.64;100121.50;1722635;81;21002;-55
2021/11/04 07:24:16;;;;;;;21.97;15.15;;;;;;;6.49;83.69;100122.36;1729101;80;21471;-55
2021/11/04 07:26:44;;;;;;;21.52;16.02;;;;;;;6.58;83.85;100120.43;1728957;81;21491;-56
2021/11/04 07:29:11;;;;;;;22.32;16.23;;;;;;;6.77;83.86;100107.87;1744333;80;21539;-55
2021/11/04 07:31:41;;;;;;;21.85;16.57;;;;;;;6.86;83.63;100108.59;1736780;81;22104;-56
2021/11/04 07:34:10;;;;;;;31.23;16.17;;;;;;;6.88;83.65;100108.12;1740973;80;21507;-56
2021/11/04 07:36:39;;;;;;;19.82;15.53;;;;;;;6.87;84.08;100107.23;1732857;80;21427;-56
2021/11/04 07:39:07;;;;;;;16.57;14.87;;;;;;;6.95;84.13;100107.95;1742878;80;21436;-55
2021/11/04 07:41:35;;;;;;;19.65;16.35;;;;;;;7.12;83.96;100102.80;1742051;80;21428;-55
2021/11/04 07:44:04;;;;;;;24.93;16.27;;;;;;;7.23;83.91;100107.81;1733847;81;21996;-56
2021/11/04 07:46:30;;;;;;;;;;;;;;;7.23;83.91;100107.81;1745242;80;22121;-55
2021/11/04 07:48:59;;;;;;;20.52;16.20;;;;;;;7.26;84.29;100114.29;1742113;80;20405;-55
2021/11/04 07:51:25;;;;;;;17.85;15.72;;;;;;;7.25;84.10;100118.64;1746961;81;21471;-55
2021/11/04 07:53:53;;;;;;;19.12;16.70;;;;;;;7.35;84.11;100119.33;1740116;80;21079;-55
2021/11/04 07:56:19;;;;;;;20.80;18.02;;;;;;;7.44;84.05;100111.27;1738267;80;21784;-55
2021/11/04 07:58:46;;;;;;;22.05;18.62;;;;;;;7.49;84.22;100111.16;1745636;80;21067;-55
2021/11/04 08:01:13;;;;;;;20.17;17.27;;;;;;;7.53;84.44;100124.13;1738034;81;21445;-55
2021/11/04 08:03:43;;;;;;;22.93;17.85;;;;;;;7.66;84.46;100123.40;1740657;80;21535;-55
2021/11/04 08:06:09;;;;;;;21.57;18.75;;;;;;;7.87;84.25;100123.80;1743877;81;21512;-55
2021/11/04 08:08:37;;;;;;;26.02;18.70;;;;;;;8.01;84.11;100132.19;1731890;80;21088;-55
2021/11/04 08:11:04;;;;;;;23.55;19.37;;;;;;;8.06;83.97;100131.63;1739607;81;21664;-55
2021/11/04 08:13:30;;;;;;;21.95;17.87;;;;;;;8.10;84.08;100133.27;1738911;80;21542;-55
2021/11/04 08:15:57;;;;;;;25.25;18.75;;;;;;;8.21;84.31;100134.75;1736697;80;21498;-55
2021/11/04 08:18:25;;;;;;;24.90;20.32;;;;;;;8.40;84.15;100124.23;1743274;80;21448;-55
2021/11/04 08:20:52;;;;;;;26.42;20.23;;;;;;;8.55;84.23;100122.97;1739092;80;21497;-55
2021/11/04 08:23:19;;;;;;;27.22;21.77;;;;;;;8.62;83.99;100136.32;1742545;80;21430;-56
2021/11/04 08:25:46;;;;;;;26.50;19.98;;;;;;;8.67;84.01;100117.41;1725078;81;21495;-58
2021/11/04 08:28:13;;;;;;;25.60;20.72;;;;;;;8.81;84.08;100107.84;1723495;80;21511;-55
2021/11/04 08:30:39;;;;;;;26.10;20.68;;;;;;;8.96;84.04;100103.92;1729841;80;21562;-56
2021/11/04 08:33:06;;;;;;;27.70;22.50;;;;;;;9.10;84.01;100099.14;1731144;80;22037;-56
2021/11/04 08:35:32;;;;;;;28.27;22.62;;;;;;;9.18;83.99;100091.05;1724424;80;21609;-59
2021/11/04 08:37:59;;;;;;;25.23;20.00;;;;;;;9.26;83.79;100094.75;1726802;81;21551;-59
2021/11/04 08:40:26;;;;;;;25.40;20.37;;;;;;;9.34;84.06;100098.86;1728977;80;21502;-56
2021/11/04 08:42:53;;;;;;;25.57;20.97;;;;;;;9.52;84.11;100090.02;1724923;80;21538;-56
2021/11/04 08:45:22;;;;;;;25.32;21.60;;;;;;;9.66;84.07;100097.02;1727198;80;21935;-56
2021/11/04 08:47:49;;;;;;;25.00;21.27;;;;;;;9.73;84.17;100089.78;1736343;80;21462;-56
2021/11/04 08:50:15;;;;;;;26.40;20.40;;;;;;;9.83;84.43;100099.09;1726891;80;21546;-55
2021/11/04 08:52:43;;;;;;;23.80;19.70;;;;;;;9.99;84.38;100092.87;1727463;80;21531;-56
2021/11/04 08:55:10;;;;;;;24.45;18.82;;;;;;;10.19;84.33;100090.89;1736536;80;21562;-55
2021/11/04 08:57:38;;;;;;;24.10;20.13;;;;;;;10.38;84.11;100088.52;1722397;82;21875;-55
2021/11/04 09:00:06;;;;;;;24.90;21.00;;;;;;;10.50;83.92;100094.64;1719737;81;21535;-56
2021/11/04 09:02:34;;;;;;;24.40;19.85;;;;;;;10.59;83.56;100102.67;1718874;81;21030;-56
2021/11/04 09:05:06;;;;;;;21.20;18.67;;;;;;;10.70;83.50;100100.52;1729535;80;21062;-55
2021/11/04 09:07:30;;;;;;;22.07;18.95;;;;;;;10.89;83.42;100097.23;1729338;80;21484;-56
2021/11/04 09:09:56;;;;;;;22.95;19.27;;;;;;;11.09;83.29;100095.15;1728989;80;21423;-56
2021/11/04 09:12:23;;;;;;;24.98;18.62;;;;;;;11.24;82.76;100094.56;1732457;80;21551;-56
2021/11/04 09:14:50;;;;;;;18.27;16.37;;;;;;;11.40;82.52;100105.37;1726543;80;21620;-56
2021/11/04 09:17:18;;;;;;;17.57;15.78;;;;;;;11.56;81.97;100095.55;1720146;81;21472;-56
2021/11/04 09:19:45;;;;;;;17.75;15.55;;;;;;;11.84;81.03;100088.71;1721796;81;21537;-54
2021/11/04 09:22:12;;;;;;;18.48;16.57;;;;;;;12.04;80.24;100085.30;1735165;81;21816;-58
2021/11/04 09:24:40;;;;;;;19.42;17.42;;;;;;;12.19;79.34;100082.48;1727253;81;21499;-56
2021/11/04 09:27:07;;;;;;;22.17;17.17;;;;;;;12.30;78.24;100074.97;1727899;81;21480;-56
2021/11/04 09:29:36;;;;;;;17.57;15.75;;;;;;;12.43;77.96;100080.55;1723480;81;21509;-56
2021/11/04 09:32:06;;;;;;;;;;;;;;;12.59;77.43;100084.23;1725590;80;21563;-56
2021/11/04 09:34:34;;;;;;;18.20;16.40;;;;;;;12.71;75.20;100079.34;1728773;80;20901;-55
2021/11/04 09:37:04;;;;;;;17.60;15.72;;;;;;;12.73;75.39;100081.44;1726888;80;20958;-55
2021/11/04 09:39:32;;;;;;;18.07;16.15;;;;;;;12.80;74.26;100070.54;1719004;80;21547;-56
2021/11/04 09:41:59;;;;;;;18.82;16.95;;;;;;;12.83;73.41;100070.88;1732951;80;21540;-54
2021/11/04 09:44:27;;;;;;;19.55;17.30;;;;;;;12.84;73.74;100054.95;1709829;80;21454;-55
2021/11/04 09:46:54;;;;;;;19.92;17.75;;;;;;;13.00;73.36;100056.92;1734895;80;25553;-60
2021/11/04 09:49:21;;;;;;;19.92;17.73;;;;;;;13.21;72.82;100052.41;1719097;81;21049;-58
2021/11/04 09:51:49;;;;;;;19.20;17.23;;;;;;;13.39;71.75;100050.70;1741758;80;21526;-59
2021/11/04 09:54:15;;;;;;;20.65;17.00;;;;;;;13.49;71.27;100039.25;1731273;80;21534;-55
2021/11/04 09:56:42;;;;;;;20.27;17.25;;;;;;;13.54;71.00;100037.22;1738367;80;21024;-58
2021/11/04 09:59:09;;;;;;;19.42;17.42;;;;;;;13.54;70.21;100038.53;1747231;80;21813;-59
2021/11/04 10:01:37;;;;;;;19.05;17.00;;;;;;;13.44;70.64;100039.45;1741333;80;21516;-58
2021/11/04 10:04:04;;;;;;;18.35;16.45;;;;;;;13.42;70.49;100033.39;1691693;82;21547;-56
2021/11/04 10:06:34;;;;;;;16.25;14.65;;;;;;;13.49;70.65;100041.41;1725912;80;21453;-57
2021/11/04 10:09:04;;;;;;;22.35;16.02;;;;;;;13.62;69.77;100029.31;1727536;81;21081;-57
2021/11/04 10:11:36;;;;;;;16.48;14.83;;;;;;;13.78;69.28;100025.91;1723734;80;21609;-58
2021/11/04 10:14:10;;;;;;;16.62;14.95;;;;;;;13.98;68.48;100027.08;1726075;80;21113;-59
2021/11/04 10:16:37;;;;;;;16.75;15.23;;;;;;;14.26;67.79;100019.06;1721201;81;21543;-58
2021/11/04 10:19:06;;;;;;;17.57;15.83;;;;;;;14.47;66.78;100011.78;1721094;81;21515;-56
2021/11/04 10:21:36;;;;;;;17.35;15.65;;;;;;;14.70;65.63;100014.55;1723371;81;21570;-57
2021/11/04 10:24:07;;;;;;;16.50;14.80;;;;;;;15.15;65.00;100016.09;1724627;80;21802;-57
2021/11/04 10:26:37;;;;;;;16.50;14.80;;;;;;;15.64;62.52;100018.59;1729011;80;21735;-56
2021/11/04 10:29:07;;;;;;;16.82;15.10;;;;;;;15.87;62.72;100012.45;1727906;81;21497;-58
2021/11/04 10:31:38;;;;;;;17.17;15.38;;;;;;;15.78;61.99;100015.64;1724491;80;21650;-57
2021/11/04 10:34:08;;;;;;;16.37;14.47;;;;;;;15.49;62.38;100010.20;1725797;81;21535;-57
2021/11/04 10:39:00;;;;;;;16.12;14.33;;;;;;;15.73;61.71;99999.53;1761002;78;23131;-59
2021/11/04 10:41:30;;;;;;;16.30;14.70;;;;;;;16.15;60.87;100001.05;1727407;81;20950;-59
2021/11/04 10:44:11;;;;;;;16.52;14.87;;;;;;;16.18;60.26;99994.25;1731156;80;21480;-59
2021/11/04 10:46:45;;;;;;;16.07;14.43;;;;;;;15.78;60.54;99992.63;1733267;80;20954;-58
2021/11/04 10:49:12;;;;;;;17.82;15.98;;;;;;;15.42;61.60;99983.19;1736377;81;21538;-57
2021/11/04 10:51:40;;;;;;;17.65;15.65;;;;;;;15.39;61.29;99978.09;1728335;81;21440;-58
2021/11/04 10:54:13;;;;;;;17.63;15.87;;;;;;;15.28;61.67;99969.42;1733001;81;21129;-59
2021/11/04 10:56:44;;;;;;;17.42;15.72;;;;;;;15.09;61.99;99966.97;1737874;81;21836;-59
2021/11/04 10:59:19;;;;;;;24.02;15.60;;;;;;;14.89;62.37;99966.75;1727212;81;21549;-59
2021/11/04 11:01:52;;;;;;;17.57;15.78;;;;;;;14.73;62.84;99966.75;1737725;81;21002;-59
2021/11/04 11:04:24;;;;;;;16.52;14.80;;;;;;;14.76;63.00;99971.02;1726314;80;21404;-59
2021/11/04 11:06:54;;;;;;;17.32;15.53;;;;;;;14.92;63.04;99971.88;1730087;80;21560;-59
2021/11/04 11:09:26;;;;;;;17.45;15.65;;;;;;;14.95;63.26;99970.37;1730196;81;21771;-58
2021/11/04 11:11:58;;;;;;;17.30;15.60;;;;;;;15.06;62.90;99959.19;1730428;80;21132;-58
2021/11/04 11:14:27;;;;;;;20.45;15.65;;;;;;;15.23;62.62;99958.70;1725958;81;21632;-59
2021/11/04 11:16:59;;;;;;;16.77;15.07;;;;;;;15.44;62.44;99957.45;1729840;81;21620;-58
2021/11/04 11:19:31;;;;;;;16.67;15.08;;;;;;;15.67;61.57;99940.68;1728282;81;21568;-58
2021/11/04 11:21:59;;;;;;;17.12;15.45;;;;;;;15.68;60.98;99943.73;1721371;81;21880;-56
2021/11/04 11:24:38;;;;;;;16.00;14.58;;;;;;;15.54;60.68;99942.75;1735028;81;21549;-55